Time;durP1;ratioP1;P1;durP2;ratioP2;P2;SDS_P1;SDS_P2;PMS_P1;PMS_P2;Temp;Humidity;BMP_temperature;BMP_pressure;BME280_temperature;BME280_humidity;BME280_pressure;Samples;Min_cycle;Max_cycle;Signal;HPM_P1;HPM_P2
2021/05/31 00:01:25;;;;;;;9.18;5.65;;;13.20;61.90;;;;;;4980424;28;20218;-79
2021/05/31 00:03:51;;;;;;;9.50;5.18;;;13.20;61.50;;;;;;4970220;28;20133;-79
2021/05/31 00:06:16;;;;;;;11.55;4.78;;;13.10;61.40;;;;;;4979017;28;20038;-79
2021/05/31 00:08:42;;;;;;;8.02;5.30;;;12.80;62.70;;;;;;4991725;28;20920;-79
2021/05/31 00:11:08;;;;;;;7.20;5.03;;;12.80;63.30;;;;;;4977816;28;20113;-79
2021/05/31 00:13:33;;;;;;;9.00;5.45;;;12.60;63.30;;;;;;4979649;28;20109;-79
2021/05/31 00:15:59;;;;;;;8.35;4.78;;;12.50;64.00;;;;;;4980515;28;20057;-79
2021/05/31 00:18:25;;;;;;;5.90;5.22;;;12.50;64.90;;;;;;4998454;28;20033;-79
2021/05/31 00:20:50;;;;;;;8.88;5.07;;;12.50;65.80;;;;;;4977158;28;20034;-79
2021/05/31 00:23:16;;;;;;;6.07;4.70;;;12.40;66.00;;;;;;4983727;28;20045;-80
2021/05/31 00:25:42;;;;;;;6.35;5.05;;;12.40;65.80;;;;;;4980705;28;20057;-79
2021/05/31 00:28:08;;;;;;;7.50;5.03;;;12.30;65.90;;;;;;4973475;28;20057;-79
2021/05/31 00:30:33;;;;;;;8.07;5.05;;;12.30;66.80;;;;;;4979880;28;20064;-79
2021/05/31 00:32:59;;;;;;;8.05;5.65;;;12.20;66.10;;;;;;4997793;28;20125;-80
2021/05/31 00:35:25;;;;;;;8.70;5.53;;;12.10;66.20;;;;;;4986390;28;20614;-79
2021/05/31 00:37:50;;;;;;;7.00;4.93;;;12.10;66.90;;;;;;4961306;28;20045;-80
2021/05/31 00:40:16;;;;;;;6.10;5.43;;;12.10;67.00;;;;;;4999114;28;20460;-79
2021/05/31 00:42:42;;;;;;;7.45;5.25;;;12.00;65.80;;;;;;4979417;28;20420;-80
2021/05/31 00:45:08;;;;;;;6.47;4.93;;;11.90;67.50;;;;;;4981720;28;20097;-77
2021/05/31 00:47:34;;;;;;;5.57;4.97;;;11.90;67.50;;;;;;4998372;28;20093;-78
2021/05/31 00:49:59;;;;;;;8.80;4.93;;;11.90;68.30;;;;;;4961587;28;20042;-78
2021/05/31 00:52:25;;;;;;;7.10;5.47;;;11.80;69.70;;;;;;4979714;28;20361;-77
2021/05/31 00:54:51;;;;;;;6.53;5.20;;;11.80;69.70;;;;;;4995113;28;20027;-78
2021/05/31 00:57:17;;;;;;;11.45;5.18;;;11.80;69.20;;;;;;4995928;28;20318;-78
2021/05/31 00:59:42;;;;;;;10.88;5.35;;;11.70;70.70;;;;;;4994902;28;20114;-78
2021/05/31 01:02:08;;;;;;;7.78;5.18;;;11.80;71.70;;;;;;4955586;28;20097;-78
2021/05/31 01:04:33;;;;;;;11.07;5.90;;;11.70;71.50;;;;;;4976526;28;20022;-78
2021/05/31 01:07:20;;;;;;;8.68;6.05;;;11.80;71.40;;;;;;4981769;28;20045;-77
2021/05/31 01:09:55;;;;;;;;;;;11.70;71.30;;;;;;4963761;28;20065;-78
2021/05/31 01:12:31;;;;;;;8.30;5.70;;;11.60;72.20;;;;;;4997222;28;19917;-77
2021/05/31 01:15:32;;;;;;;12.02;6.47;;;11.60;73.30;;;;;;4981496;28;20038;-78
2021/05/31 01:18:20;;;;;;;8.63;5.65;;;11.60;72.30;;;;;;4987821;28;20440;-78
2021/05/31 01:21:13;;;;;;;7.25;5.32;;;11.50;73.00;;;;;;4994505;28;20654;-78
2021/05/31 01:23:40;;;;;;;7.80;5.05;;;11.50;73.10;;;;;;4977141;28;20164;-78
2021/05/31 01:26:10;;;;;;;8.73;6.22;;;11.50;73.70;;;;;;4964651;28;20738;-78
2021/05/31 01:28:59;;;;;;;7.65;5.68;;;11.40;73.30;;;;;;4959906;28;20034;-78
2021/05/31 01:31:45;;;;;;;9.40;6.00;;;11.40;75.00;;;;;;4978690;28;20121;-78
2021/05/31 01:34:12;;;;;;;5.53;4.70;;;11.30;76.00;;;;;;4992286;28;20104;-78
2021/05/31 01:36:43;;;;;;;8.05;6.25;;;11.30;76.10;;;;;;4979743;28;20034;-78
2021/05/31 01:39:09;;;;;;;9.63;5.78;;;11.20;75.90;;;;;;4963588;28;20368;-78
2021/05/31 01:41:34;;;;;;;9.40;5.57;;;11.20;76.00;;;;;;4962523;28;20034;-78
2021/05/31 01:44:00;;;;;;;7.57;6.45;;;11.30;75.30;;;;;;4979691;28;20037;-78
2021/05/31 01:46:25;;;;;;;13.48;6.30;;;11.20;75.90;;;;;;4960735;28;20555;-78
2021/05/31 01:48:51;;;;;;;11.10;6.00;;;11.20;76.10;;;;;;4971773;28;20034;-78
2021/05/31 01:51:17;;;;;;;8.95;6.18;;;11.10;76.90;;;;;;4994602;28;20038;-78
2021/05/31 01:53:42;;;;;;;7.75;6.10;;;11.00;77.50;;;;;;4979587;28;20324;-78
2021/05/31 01:56:08;;;;;;;7.95;6.10;;;11.00;77.00;;;;;;4979396;28;20103;-78
2021/05/31 01:58:33;;;;;;;7.38;5.65;;;11.00;77.80;;;;;;4979243;28;20026;-78
2021/05/31 02:00:59;;;;;;;10.52;6.43;;;11.00;78.10;;;;;;4972151;28;20038;-78
2021/05/31 02:03:25;;;;;;;7.50;5.75;;;10.90;77.90;;;;;;4960397;28;20114;-78
2021/05/31 02:05:50;;;;;;;12.00;6.50;;;10.80;78.80;;;;;;4980064;28;20104;-78
2021/05/31 02:08:16;;;;;;;8.38;6.50;;;10.80;78.70;;;;;;4973189;28;20061;-78
2021/05/31 02:10:41;;;;;;;8.45;6.18;;;10.80;80.40;;;;;;4974557;28;20121;-78
2021/05/31 02:13:09;;;;;;;11.18;6.57;;;10.80;80.10;;;;;;4987764;28;20030;-78
2021/05/31 02:15:41;;;;;;;7.75;5.85;;;10.70;79.80;;;;;;4971575;28;23817;-78
2021/05/31 02:18:24;;;;;;;7.95;6.85;;;10.70;80.60;;;;;;5001748;28;20042;-78
2021/05/31 02:21:09;;;;;;;11.52;6.57;;;10.60;81.30;;;;;;4975416;28;20405;-78
2021/05/31 02:23:38;;;;;;;8.88;5.95;;;10.60;82.20;;;;;;4992990;28;20028;-78
2021/05/31 02:26:04;;;;;;;8.63;5.93;;;10.60;81.70;;;;;;5003909;28;20044;-78
2021/05/31 02:28:29;;;;;;;9.27;6.32;;;10.60;80.60;;;;;;4985253;28;20018;-78
2021/05/31 02:30:55;;;;;;;9.70;6.38;;;10.60;81.00;;;;;;4980587;28;20056;-78
2021/05/31 02:33:24;;;;;;;11.07;6.28;;;10.40;82.60;;;;;;4976619;28;20130;-78
2021/05/31 02:35:50;;;;;;;10.48;6.55;;;10.40;82.90;;;;;;4985034;28;20528;-77
2021/05/31 02:38:15;;;;;;;10.25;6.95;;;10.50;82.80;;;;;;4971401;28;20022;-78
2021/05/31 02:40:41;;;;;;;12.32;6.00;;;10.40;82.60;;;;;;4972449;28;20036;-77
2021/05/31 02:43:09;;;;;;;11.30;6.60;;;10.40;83.70;;;;;;4988275;28;20044;-77
2021/05/31 02:45:35;;;;;;;8.60;6.35;;;10.30;82.80;;;;;;4983836;28;20035;-78
2021/05/31 02:48:00;;;;;;;9.65;6.53;;;10.30;82.30;;;;;;4967703;28;20034;-77
2021/05/31 02:50:27;;;;;;;15.02;6.70;;;10.20;83.70;;;;;;4986948;28;20176;-78
2021/05/31 02:52:53;;;;;;;9.88;7.03;;;10.20;83.10;;;;;;5000211;28;20033;-77
2021/05/31 02:55:22;;;;;;;8.88;6.53;;;10.10;83.90;;;;;;4987381;28;20026;-78
2021/05/31 02:57:47;;;;;;;10.48;7.10;;;10.10;84.40;;;;;;4987396;28;20547;-78
2021/05/31 03:00:14;;;;;;;9.85;6.57;;;10.00;84.90;;;;;;4973650;28;20105;-77
2021/05/31 03:02:40;;;;;;;9.70;6.95;;;10.00;84.90;;;;;;4982398;28;20033;-77
2021/05/31 03:05:07;;;;;;;10.60;6.60;;;10.00;84.50;;;;;;4976506;28;20917;-77
2021/05/31 03:07:32;;;;;;;13.93;7.07;;;10.00;83.70;;;;;;4987066;28;20042;-78
2021/05/31 03:09:58;;;;;;;10.05;6.45;;;10.00;83.30;;;;;;4982999;28;20104;-78
2021/05/31 03:12:23;;;;;;;7.95;6.40;;;9.90;84.50;;;;;;4969471;28;20103;-77
2021/05/31 03:14:51;;;;;;;10.25;7.20;;;10.00;81.50;;;;;;4994835;28;20027;-77
2021/05/31 03:17:17;;;;;;;7.10;6.22;;;9.90;84.10;;;;;;4987921;28;20048;-78
2021/05/31 03:19:42;;;;;;;12.48;7.47;;;10.00;81.20;;;;;;4983240;28;20418;-77
2021/05/31 03:22:08;;;;;;;13.98;7.57;;;10.00;80.60;;;;;;4983791;28;20026;-77
2021/05/31 03:24:34;;;;;;;8.20;6.90;;;10.10;79.50;;;;;;4982815;28;20639;-77
2021/05/31 03:26:59;;;;;;;8.77;7.07;;;10.10;78.50;;;;;;4992603;28;20046;-77
2021/05/31 03:29:25;;;;;;;9.85;7.43;;;10.10;78.20;;;;;;4980060;28;20097;-77
2021/05/31 03:31:50;;;;;;;9.82;6.55;;;10.10;77.70;;;;;;5002846;28;20043;-77
2021/05/31 03:34:16;;;;;;;8.93;6.53;;;10.10;77.50;;;;;;4983606;28;20508;-77
2021/05/31 03:36:41;;;;;;;10.32;6.88;;;10.10;77.50;;;;;;4985299;28;20045;-77
2021/05/31 03:39:07;;;;;;;10.75;7.80;;;10.00;78.20;;;;;;4990853;28;20033;-77
2021/05/31 03:41:33;;;;;;;9.20;7.22;;;10.00;77.90;;;;;;4980236;28;20041;-77
2021/05/31 03:43:58;;;;;;;9.80;7.82;;;9.90;79.20;;;;;;4992890;28;20041;-77
2021/05/31 03:46:24;;;;;;;8.40;6.88;;;9.90;79.90;;;;;;4981586;28;20034;-78
2021/05/31 03:48:49;;;;;;;9.15;7.15;;;9.90;79.20;;;;;;4981819;28;20037;-77
2021/05/31 03:51:17;;;;;;;11.88;7.65;;;9.90;78.70;;;;;;4967677;28;20041;-78
2021/05/31 03:53:43;;;;;;;14.50;7.10;;;10.00;77.40;;;;;;4980202;28;20041;-77
2021/05/31 03:56:08;;;;;;;9.45;8.07;;;10.00;77.20;;;;;;4982606;28;20378;-77
2021/05/31 03:58:34;;;;;;;15.50;7.60;;;9.90;79.90;;;;;;4982228;28;20039;-77
2021/05/31 04:01:01;;;;;;;11.02;7.68;;;9.80;81.40;;;;;;4999279;28;20042;-77
2021/05/31 04:03:27;;;;;;;12.43;7.72;;;9.70;81.60;;;;;;4978860;28;20061;-77
2021/05/31 04:13:56;;;;;;;12.73;8.70;;;10.10;83.00;;;;;;5000411;28;20042;-77
2021/05/31 04:16:22;;;;;;;10.38;7.93;;;10.30;81.70;;;;;;4994833;28;20042;-78
2021/05/31 04:18:47;;;;;;;12.73;8.05;;;10.40;81.80;;;;;;4962982;28;20030;-78
2021/05/31 04:21:13;;;;;;;12.50;8.40;;;10.60;81.70;;;;;;4978381;28;20458;-77
2021/05/31 04:23:38;;;;;;;11.38;7.80;;;10.70;82.60;;;;;;4981627;28;20049;-77
2021/05/31 04:26:05;;;;;;;16.27;8.07;;;10.80;83.70;;;;;;4980813;28;20034;-78
2021/05/31 04:28:30;;;;;;;9.57;8.02;;;10.90;83.90;;;;;;5000820;28;20129;-78
2021/05/31 04:30:56;;;;;;;11.57;7.65;;;11.10;84.50;;;;;;4977282;28;20413;-78
2021/05/31 04:33:21;;;;;;;10.00;7.60;;;11.20;84.40;;;;;;4984102;28;20064;-77
2021/05/31 04:35:47;;;;;;;10.73;7.22;;;11.40;83.90;;;;;;4968681;28;20394;-78
2021/05/31 04:38:12;;;;;;;10.63;7.28;;;11.50;84.00;;;;;;4996695;28;20030;-77
2021/05/31 04:40:38;;;;;;;13.00;6.78;;;11.70;84.40;;;;;;4981423;28;20052;-77
2021/05/31 04:43:03;;;;;;;10.60;7.10;;;11.90;82.80;;;;;;4994252;28;20437;-77
2021/05/31 04:45:29;;;;;;;10.95;6.55;;;12.10;83.40;;;;;;4983892;28;20042;-77
2021/05/31 04:47:54;;;;;;;10.02;7.85;;;12.30;82.60;;;;;;4995137;28;20030;-78
2021/05/31 04:50:20;;;;;;;13.32;6.68;;;12.40;82.40;;;;;;4987619;28;20381;-78
2021/05/31 04:52:45;;;;;;;14.60;7.70;;;12.60;82.90;;;;;;4984665;28;20026;-78
2021/05/31 04:55:20;;;;;;;9.88;7.15;;;12.80;83.20;;;;;;4984754;28;20492;-78
2021/05/31 04:57:46;;;;;;;7.47;6.65;;;13.10;83.40;;;;;;4994647;28;20513;-78
2021/05/31 05:00:12;;;;;;;13.13;7.53;;;13.30;83.80;;;;;;4969810;28;20026;-78
2021/05/31 05:02:38;;;;;;;8.00;6.55;;;13.60;83.20;;;;;;4982047;28;20034;-78
2021/05/31 05:05:04;;;;;;;14.55;7.50;;;13.80;82.20;;;;;;4972833;28;20034;-78
2021/05/31 05:07:29;;;;;;;9.88;6.18;;;14.00;83.70;;;;;;4996903;28;20037;-78
2021/05/31 05:09:55;;;;;;;10.13;7.05;;;14.30;84.10;;;;;;4968979;28;20465;-78
2021/05/31 05:12:21;;;;;;;10.50;6.93;;;14.50;84.20;;;;;;4956863;28;20398;-78
2021/05/31 05:14:47;;;;;;;12.75;7.28;;;14.70;82.70;;;;;;4978475;28;20101;-78
2021/05/31 05:17:12;;;;;;;11.40;6.88;;;15.00;84.00;;;;;;4982123;28;20040;-78
2021/05/31 05:19:38;;;;;;;10.77;7.05;;;15.20;83.60;;;;;;4978939;28;20026;-79
2021/05/31 05:22:03;;;;;;;9.82;6.60;;;15.40;83.20;;;;;;4957149;28;20038;-79
2021/05/31 05:24:29;;;;;;;11.00;6.32;;;15.70;83.40;;;;;;4993131;28;20505;-79
2021/05/31 05:26:54;;;;;;;11.07;7.13;;;15.90;83.20;;;;;;4954965;28;20505;-79
2021/05/31 05:29:20;;;;;;;10.38;7.03;;;16.10;81.80;;;;;;4985415;28;20045;-79
2021/05/31 05:31:47;;;;;;;14.88;6.97;;;16.30;81.80;;;;;;4963270;28;20037;-79
2021/05/31 05:34:12;;;;;;;11.13;6.65;;;16.50;82.10;;;;;;4978119;28;20038;-79
2021/05/31 05:36:50;;;;;;;10.90;7.57;;;16.80;81.90;;;;;;4964631;28;20033;-78
2021/05/31 05:39:36;;;;;;;9.07;6.53;;;17.00;80.90;;;;;;4994407;28;20026;-79
2021/05/31 05:50:13;;;;;;;15.23;8.15;;;17.90;78.80;;;;;;5001450;28;20041;-79
2021/05/31 05:52:39;;;;;;;11.75;7.00;;;18.10;78.20;;;;;;4985040;28;20054;-79
2021/05/31 05:55:08;;;;;;;12.38;7.55;;;18.30;77.60;;;;;;4984146;28;20049;-80
2021/05/31 05:57:34;;;;;;;11.90;7.55;;;18.50;77.20;;;;;;4971194;28;20536;-80
2021/05/31 06:00:02;;;;;;;10.38;7.93;;;18.70;77.60;;;;;;4986525;28;20091;-80
2021/05/31 06:02:28;;;;;;;10.38;7.45;;;19.00;76.80;;;;;;4966030;28;20046;-80
2021/05/31 06:04:54;;;;;;;18.75;8.02;;;19.20;75.80;;;;;;4963994;28;20034;-79
2021/05/31 06:07:19;;;;;;;12.43;7.53;;;19.30;75.50;;;;;;4980546;28;20128;-80
2021/05/31 06:09:45;;;;;;;14.82;8.45;;;19.60;75.20;;;;;;4979567;28;20189;-80
2021/05/31 06:12:10;;;;;;;8.75;5.65;;;19.80;74.60;;;;;;4986901;28;20117;-80
2021/05/31 06:14:36;;;;;;;8.38;7.45;;;19.90;72.20;;;;;;4964149;28;20038;-80
2021/05/31 06:17:01;;;;;;;10.25;6.90;;;20.10;73.90;;;;;;4960200;28;20050;-80
2021/05/31 06:19:29;;;;;;;12.55;8.07;;;20.40;73.50;;;;;;4980689;28;20035;-80
2021/05/31 06:21:54;;;;;;;15.07;8.15;;;20.60;72.90;;;;;;4982450;28;20038;-80
2021/05/31 06:24:20;;;;;;;10.27;7.97;;;20.80;72.30;;;;;;4967216;28;20771;-79
2021/05/31 06:26:45;;;;;;;11.90;8.13;;;21.00;71.70;;;;;;4980946;28;20405;-80
2021/05/31 06:29:11;;;;;;;13.52;7.57;;;21.20;70.90;;;;;;4970050;28;20277;-80
2021/05/31 06:31:36;;;;;;;14.13;8.00;;;21.40;70.00;;;;;;4984881;28;20030;-80
2021/05/31 06:34:02;;;;;;;10.30;7.00;;;21.60;69.80;;;;;;4977312;28;20400;-80
2021/05/31 06:36:28;;;;;;;12.68;7.18;;;21.70;68.80;;;;;;4976591;28;20101;-79
2021/05/31 06:38:53;;;;;;;10.05;6.68;;;21.90;68.40;;;;;;4964201;28;20089;-81
2021/05/31 06:41:19;;;;;;;9.18;6.47;;;22.10;67.70;;;;;;4983183;28;20045;-82
2021/05/31 06:43:44;;;;;;;9.65;6.95;;;22.10;67.10;;;;;;4963059;28;20022;-82
2021/05/31 06:46:10;;;;;;;14.13;6.20;;;22.30;66.70;;;;;;4984821;28;20060;-82
2021/05/31 06:48:37;;;;;;;10.88;6.13;;;22.50;67.40;;;;;;4978706;28;20413;-82
2021/05/31 06:51:04;;;;;;;10.95;6.55;;;22.80;67.70;;;;;;4969083;28;20034;-82
2021/05/31 06:53:29;;;;;;;9.05;6.47;;;22.90;66.80;;;;;;4985861;28;20033;-82
2021/05/31 06:55:55;;;;;;;10.07;6.60;;;23.00;66.80;;;;;;4966917;28;20449;-82
2021/05/31 06:58:20;;;;;;;10.98;6.60;;;23.20;65.80;;;;;;4972677;28;20032;-80
2021/05/31 07:00:46;;;;;;;9.32;5.60;;;23.50;65.60;;;;;;4970004;28;20186;-80
2021/05/31 07:03:13;;;;;;;8.75;5.07;;;23.60;63.40;;;;;;4987078;28;20038;-81
2021/05/31 07:05:38;;;;;;;7.35;5.22;;;23.70;64.20;;;;;;4982607;28;20387;-81
2021/05/31 07:08:04;;;;;;;11.25;6.03;;;24.00;64.00;;;;;;4980450;28;20030;-81
2021/05/31 07:10:30;;;;;;;10.40;5.68;;;24.20;63.80;;;;;;4982431;28;20493;-81
2021/05/31 07:12:56;;;;;;;9.25;4.18;;;24.40;62.90;;;;;;4984151;28;20034;-81
2021/05/31 07:15:22;;;;;;;6.40;4.10;;;24.60;61.60;;;;;;4986098;28;20034;-82
2021/05/31 07:17:48;;;;;;;8.75;5.55;;;24.60;62.60;;;;;;4968944;28;20026;-81
2021/05/31 07:20:19;;;;;;;10.55;5.18;;;24.80;61.70;;;;;;4973607;28;20065;-82
2021/05/31 07:22:46;;;;;;;9.32;5.28;;;25.20;61.30;;;;;;4963524;28;20493;-82
2021/05/31 07:25:13;;;;;;;11.15;5.93;;;25.30;61.10;;;;;;4968635;28;20027;-82
2021/05/31 07:27:39;;;;;;;8.23;6.45;;;25.50;60.90;;;;;;4983790;28;20038;-83
2021/05/31 07:30:05;;;;;;;10.13;5.32;;;25.70;59.10;;;;;;5000935;28;21233;-83
2021/05/31 07:32:31;;;;;;;9.40;5.05;;;25.90;58.80;;;;;;4997239;28;20077;-82
2021/05/31 07:34:56;;;;;;;10.43;5.55;;;26.00;58.20;;;;;;4997507;28;20039;-83
2021/05/31 07:37:22;;;;;;;8.02;5.72;;;26.10;58.60;;;;;;4980497;28;20516;-83
2021/05/31 07:39:47;;;;;;;11.73;4.43;;;26.20;57.70;;;;;;4984315;28;20030;-83
2021/05/31 07:42:13;;;;;;;9.82;5.15;;;26.50;57.70;;;;;;4984182;28;20034;-83
2021/05/31 07:44:39;;;;;;;7.80;4.93;;;26.60;57.00;;;;;;4966843;28;20027;-83
2021/05/31 07:47:04;;;;;;;7.38;5.50;;;26.90;56.80;;;;;;4968768;28;20042;-83
2021/05/31 07:49:30;;;;;;;8.65;4.68;;;27.10;56.50;;;;;;4964513;28;20033;-82
2021/05/31 07:51:56;;;;;;;9.45;4.80;;;27.10;55.90;;;;;;4998918;28;20034;-82
2021/05/31 07:54:24;;;;;;;9.80;4.95;;;27.30;56.30;;;;;;4962916;28;20030;-82
2021/05/31 07:56:50;;;;;;;14.57;6.47;;;27.40;56.00;;;;;;4964166;28;20030;-82
2021/05/31 07:59:16;;;;;;;14.50;6.53;;;27.50;54.50;;;;;;4967417;28;20486;-82
2021/05/31 08:01:41;;;;;;;9.63;5.60;;;27.60;53.90;;;;;;4969008;28;20030;-81
2021/05/31 08:04:07;;;;;;;9.95;5.90;;;27.70;52.80;;;;;;4998144;28;20044;-82
2021/05/31 08:06:34;;;;;;;8.95;5.38;;;27.80;52.80;;;;;;4983406;28;20049;-81
2021/05/31 08:09:00;;;;;;;10.27;4.57;;;28.00;52.90;;;;;;4991932;28;20073;-81
2021/05/31 08:11:25;;;;;;;7.70;4.90;;;28.00;52.90;;;;;;4981087;28;20485;-82
2021/05/31 08:13:51;;;;;;;6.15;4.72;;;28.30;51.70;;;;;;4991190;28;20177;-80
2021/05/31 08:16:18;;;;;;;7.72;3.50;;;28.30;51.90;;;;;;4992260;28;20057;-81
2021/05/31 08:18:44;;;;;;;10.68;4.72;;;28.40;51.10;;;;;;4985703;28;20485;-81
2021/05/31 08:21:10;;;;;;;6.13;4.65;;;28.50;50.30;;;;;;4977558;28;20034;-81
2021/05/31 08:23:36;;;;;;;11.25;4.32;;;28.70;49.20;;;;;;4983781;28;20038;-80
2021/05/31 08:26:01;;;;;;;7.18;5.00;;;28.60;50.00;;;;;;4994735;28;20042;-80
2021/05/31 08:28:27;;;;;;;8.20;4.25;;;28.70;49.50;;;;;;4982801;28;20027;-81
2021/05/31 08:30:52;;;;;;;6.85;4.93;;;28.80;49.00;;;;;;4979217;28;20404;-80
2021/05/31 08:33:18;;;;;;;8.18;5.28;;;28.80;47.90;;;;;;4979911;28;20034;-81
2021/05/31 08:35:44;;;;;;;8.00;4.80;;;28.90;48.30;;;;;;4977803;28;20046;-81
2021/05/31 08:38:09;;;;;;;9.90;3.92;;;29.10;47.40;;;;;;4997393;28;20037;-81
2021/05/31 08:40:35;;;;;;;8.27;4.22;;;29.00;49.30;;;;;;4995755;28;20038;-82
2021/05/31 08:43:00;;;;;;;7.20;4.65;;;29.20;48.80;;;;;;4974024;28;20592;-81
2021/05/31 08:45:29;;;;;;;8.65;4.47;;;29.30;47.30;;;;;;4992941;28;20022;-82
2021/05/31 08:47:54;;;;;;;7.60;3.88;;;29.30;47.50;;;;;;4979410;28;20176;-80
2021/05/31 08:50:21;;;;;;;5.10;3.83;;;29.30;47.70;;;;;;4976610;28;20109;-82
2021/05/31 08:52:48;;;;;;;6.30;3.67;;;29.40;48.00;;;;;;4995625;28;20041;-82
2021/05/31 08:55:15;;;;;;;5.25;3.63;;;29.80;47.20;;;;;;4968512;28;20050;-82
2021/05/31 08:57:41;;;;;;;9.15;4.10;;;29.90;47.30;;;;;;4989338;28;20037;-81
2021/05/31 09:00:09;;;;;;;8.55;3.90;;;30.10;46.50;;;;;;4972076;28;20030;-82
2021/05/31 09:02:37;;;;;;;4.65;3.95;;;30.40;46.40;;;;;;4998807;28;20026;-81
2021/05/31 09:05:04;;;;;;;5.18;3.50;;;30.50;46.80;;;;;;4952023;28;20394;-82
2021/05/31 09:07:29;;;;;;;10.30;4.85;;;30.80;46.00;;;;;;4969815;28;20565;-81
2021/05/31 09:09:55;;;;;;;11.98;4.88;;;31.00;44.90;;;;;;4953930;28;20035;-82
2021/05/31 09:12:23;;;;;;;8.13;4.63;;;31.40;43.60;;;;;;4958474;28;20398;-81
2021/05/31 09:15:01;;;;;;;7.80;4.80;;;31.60;42.80;;;;;;4982470;28;20034;-81
2021/05/31 09:17:28;;;;;;;8.55;4.40;;;31.60;42.90;;;;;;4970655;28;20038;-81
2021/05/31 09:19:54;;;;;;;6.07;4.05;;;31.70;42.30;;;;;;4974003;28;20050;-81
2021/05/31 09:22:20;;;;;;;11.18;5.78;;;31.60;42.30;;;;;;4992700;28;20115;-81
2021/05/31 09:24:58;;;;;;;4.40;3.38;;;31.60;41.10;;;;;;4979409;28;20440;-81
2021/05/31 09:27:25;;;;;;;7.78;5.10;;;31.70;42.80;;;;;;4983339;28;20121;-81
2021/05/31 09:30:06;;;;;;;7.60;4.75;;;32.00;41.40;;;;;;4994139;28;20038;-81
2021/05/31 09:32:32;;;;;;;6.53;4.93;;;32.00;41.30;;;;;;4981778;28;20062;-80
2021/05/31 09:35:04;;;;;;;8.27;4.22;;;32.10;40.70;;;;;;4990039;28;20433;-81
2021/05/31 09:37:31;;;;;;;7.93;4.75;;;32.10;40.30;;;;;;4972747;28;20048;-81
2021/05/31 09:40:01;;;;;;;4.72;3.67;;;32.30;40.20;;;;;;4961357;28;20470;-81
2021/05/31 09:42:26;;;;;;;8.55;4.40;;;31.90;40.20;;;;;;4961434;28;20030;-80
2021/05/31 09:45:07;;;;;;;9.10;5.22;;;31.80;40.00;;;;;;4965733;28;20039;-80
2021/05/31 09:47:34;;;;;;;5.32;4.75;;;31.90;39.00;;;;;;4976806;28;20173;-80
2021/05/31 09:50:00;;;;;;;8.48;5.63;;;31.80;40.10;;;;;;4963756;28;20145;-80
2021/05/31 09:52:25;;;;;;;6.05;4.45;;;31.70;38.80;;;;;;4976750;28;20040;-79
2021/05/31 09:54:51;;;;;;;12.40;5.00;;;31.60;39.60;;;;;;4976280;28;20128;-80
2021/05/31 09:57:30;;;;;;;5.30;4.20;;;31.30;40.00;;;;;;4963777;28;20092;-80
2021/05/31 10:00:01;;;;;;;8.18;4.80;;;31.10;39.90;;;;;;4993361;28;20035;-81
2021/05/31 10:02:51;;;;;;;5.25;4.38;;;31.10;39.70;;;;;;4992576;28;20243;-81
2021/05/31 10:10:15;;;;;;;6.85;5.20;;;30.70;38.20;;;;;;4982241;28;20026;-81
2021/05/31 10:12:41;;;;;;;8.82;5.55;;;30.50;38.20;;;;;;4988905;28;20033;-80
2021/05/31 10:15:07;;;;;;;6.85;4.57;;;30.40;38.50;;;;;;4986648;28;20019;-81
2021/05/31 10:17:33;;;;;;;9.23;4.70;;;30.20;39.70;;;;;;4977180;28;20134;-80
2021/05/31 10:20:01;;;;;;;8.57;5.05;;;30.20;40.90;;;;;;4993567;28;20113;-80
2021/05/31 10:22:27;;;;;;;10.77;5.05;;;30.10;39.70;;;;;;4979338;28;20040;-80
2021/05/31 10:24:53;;;;;;;6.38;5.78;;;29.90;40.40;;;;;;4977430;28;20034;-81
2021/05/31 10:27:18;;;;;;;8.82;4.82;;;29.90;40.00;;;;;;4986003;28;20072;-80
2021/05/31 10:29:44;;;;;;;6.40;4.50;;;29.80;40.30;;;;;;4992160;28;20473;-80
2021/05/31 10:32:10;;;;;;;6.20;5.38;;;29.70;40.30;;;;;;4967407;28;20048;-81
2021/05/31 10:34:43;;;;;;;6.47;4.38;;;29.70;40.10;;;;;;4965198;28;20473;-81
2021/05/31 10:37:16;;;;;;;6.93;4.07;;;29.80;40.00;;;;;;4981848;28;20039;-81
2021/05/31 10:39:42;;;;;;;7.28;4.50;;;30.00;40.60;;;;;;4978508;28;20029;-81
2021/05/31 10:42:08;;;;;;;5.40;4.68;;;30.00;39.60;;;;;;4988630;28;20038;-80
2021/05/31 10:44:33;;;;;;;9.02;5.00;;;30.00;40.20;;;;;;4978459;28;20609;-81
2021/05/31 10:47:12;;;;;;;4.78;4.13;;;30.10;40.10;;;;;;5001657;28;20045;-80
2021/05/31 10:49:38;;;;;;;6.22;5.18;;;30.20;40.30;;;;;;4985353;28;20038;-81
2021/05/31 10:52:04;;;;;;;9.23;6.13;;;30.40;40.20;;;;;;4971212;28;20385;-81
2021/05/31 10:54:36;;;;;;;7.47;5.03;;;30.60;39.60;;;;;;4995661;28;20121;-81
2021/05/31 10:57:06;;;;;;;4.90;4.47;;;30.80;40.10;;;;;;4995527;28;20121;-81
2021/05/31 10:59:32;;;;;;;7.82;5.25;;;30.90;39.20;;;;;;4971741;28;20042;-81
2021/05/31 11:01:59;;;;;;;7.03;5.03;;;31.10;39.10;;;;;;4969785;28;20033;-81
2021/05/31 11:04:25;;;;;;;5.35;3.60;;;31.10;37.00;;;;;;4980818;28;20034;-81
2021/05/31 11:06:55;;;;;;;4.53;3.33;;;31.20;39.30;;;;;;4993564;28;20701;-81
2021/05/31 11:09:24;;;;;;;14.13;4.40;;;31.40;38.70;;;;;;4991417;28;20633;-81
2021/05/31 11:11:54;;;;;;;5.03;3.60;;;31.60;37.20;;;;;;4968187;28;20060;-81
2021/05/31 11:14:30;;;;;;;7.70;4.36;;;31.80;37.00;;;;;;4620140;28;10000869;-81
2021/05/31 11:17:07;;;;;;;4.93;3.40;;;31.80;36.80;;;;;;4638507;28;9999889;-80
2021/05/31 11:19:37;;;;;;;9.35;3.75;;;31.90;37.40;;;;;;4976619;28;20093;-81
2021/05/31 11:22:16;;;;;;;5.40;3.85;;;32.10;39.50;;;;;;4990474;28;20473;-81
2021/05/31 11:24:51;;;;;;;5.82;4.07;;;32.30;35.70;;;;;;4979121;28;20236;-79
2021/05/31 11:27:16;;;;;;;3.13;2.88;;;32.30;35.10;;;;;;4993084;28;20522;-78
2021/05/31 11:29:42;;;;;;;6.05;3.88;;;32.40;36.40;;;;;;4976429;28;20071;-79
2021/05/31 11:32:08;;;;;;;3.95;3.22;;;32.60;38.10;;;;;;4967500;28;20038;-79
2021/05/31 11:34:33;;;;;;;7.65;4.30;;;32.90;37.00;;;;;;4975698;28;20030;-80
2021/05/31 11:36:59;;;;;;;8.10;4.40;;;32.80;36.00;;;;;;4972579;28;20644;-80
2021/05/31 11:39:25;;;;;;;5.65;4.10;;;32.90;35.40;;;;;;4991519;28;20444;-80
2021/05/31 11:41:51;;;;;;;6.90;4.20;;;32.80;36.70;;;;;;4976233;28;20081;-80
2021/05/31 11:44:20;;;;;;;6.13;3.97;;;32.90;35.40;;;;;;4979051;28;20042;-78
2021/05/31 11:46:50;;;;;;;6.15;3.00;;;32.80;36.00;;;;;;4994642;28;20034;-81
2021/05/31 11:49:16;;;;;;;8.73;3.63;;;32.90;35.60;;;;;;4995787;28;20126;-81
2021/05/31 11:51:42;;;;;;;4.60;2.97;;;33.00;35.00;;;;;;4980618;28;20041;-80
2021/05/31 11:54:12;;;;;;;4.55;3.83;;;33.20;36.60;;;;;;4997598;28;20060;-81
2021/05/31 11:56:37;;;;;;;3.63;3.22;;;33.40;34.20;;;;;;4995131;28;20030;-81
2021/05/31 11:59:03;;;;;;;5.55;2.85;;;33.50;35.70;;;;;;4978348;28;20057;-80
2021/05/31 12:01:29;;;;;;;4.13;3.28;;;33.60;35.20;;;;;;4976627;28;20504;-80
2021/05/31 12:03:54;;;;;;;3.45;3.15;;;33.80;34.00;;;;;;4976940;28;20034;-81
2021/05/31 12:06:20;;;;;;;3.35;2.90;;;34.00;33.00;;;;;;4962627;28;20038;-81
2021/05/31 12:08:47;;;;;;;7.07;3.47;;;33.90;33.80;;;;;;4968368;28;20100;-82
2021/05/31 12:11:22;;;;;;;3.95;3.15;;;34.00;32.80;;;;;;5000178;28;20108;-80
2021/05/31 12:13:48;;;;;;;6.70;3.22;;;34.10;35.70;;;;;;4962524;28;20041;-80
2021/05/31 12:16:14;;;;;;;3.85;3.20;;;34.20;33.40;;;;;;4970252;28;20018;-81
2021/05/31 12:18:40;;;;;;;5.80;3.45;;;34.30;33.50;;;;;;4992736;28;20037;-81
2021/05/31 12:21:05;;;;;;;3.97;3.38;;;34.20;31.20;;;;;;4967345;28;20405;-81
2021/05/31 12:23:31;;;;;;;3.72;3.00;;;34.20;31.50;;;;;;4981957;28;20030;-81
2021/05/31 12:26:04;;;;;;;5.15;2.70;;;34.20;31.40;;;;;;4978385;28;20042;-80
2021/05/31 12:28:31;;;;;;;4.15;2.70;;;34.30;32.90;;;;;;4995336;28;20042;-80
2021/05/31 12:30:56;;;;;;;4.60;2.85;;;34.60;35.20;;;;;;4978494;28;20038;-81
2021/05/31 12:33:22;;;;;;;4.65;2.97;;;35.50;31.90;;;;;;4978603;28;20038;-81
2021/05/31 12:35:48;;;;;;;4.82;3.47;;;35.20;32.50;;;;;;4967781;28;20030;-80
2021/05/31 12:38:14;;;;;;;4.85;3.58;;;35.20;31.80;;;;;;4999130;28;20076;-80
2021/05/31 12:40:41;;;;;;;6.65;3.83;;;35.00;29.70;;;;;;4993341;28;20505;-80
2021/05/31 12:43:10;;;;;;;6.53;4.80;;;35.00;30.40;;;;;;4991105;28;20031;-79
2021/05/31 12:45:47;;;;;;;6.05;4.63;;;35.00;30.10;;;;;;4980563;28;20034;-80
2021/05/31 12:48:17;;;;;;;7.72;3.60;;;35.00;31.60;;;;;;4976017;28;20038;-80
2021/05/31 12:50:43;;;;;;;5.75;3.97;;;35.50;33.40;;;;;;4970362;28;20034;-80
2021/05/31 12:53:11;;;;;;;5.65;2.90;;;35.50;31.50;;;;;;4977585;28;20449;-81
2021/05/31 12:55:38;;;;;;;7.85;3.70;;;35.50;32.80;;;;;;4984709;28;20026;-81
2021/05/31 12:58:17;;;;;;;6.65;3.97;;;35.50;31.80;;;;;;4991983;28;20033;-81
2021/05/31 13:00:44;;;;;;;6.13;3.47;;;35.60;32.70;;;;;;4992329;28;20049;-81
2021/05/31 13:03:10;;;;;;;7.20;4.03;;;35.80;31.90;;;;;;4980087;28;20041;-81
2021/05/31 13:05:39;;;;;;;4.68;3.85;;;35.40;29.60;;;;;;4963075;28;20030;-80